Time;durP1;ratioP1;P1;durP2;ratioP2;P2;SDS_P1;SDS_P2;PMS_P1;PMS_P2;Temp;Humidity;BMP_temperature;BMP_pressure;BME280_temperature;BME280_humidity;BME280_pressure;Samples;Min_cycle;Max_cycle;Signal;HPM_P1;HPM_P2
2021/09/16 00:00:36;;;;;;;26.83;17.00;;;;;;;17.30;97.02;99793.34;4992308;28;20061;-61
2021/09/16 00:03:22;;;;;;;;;;;;;;;17.35;96.74;99801.69;4992387;28;20076;-63
2021/09/16 00:06:07;;;;;;;23.10;15.03;;;;;;;17.38;96.39;99795.88;4991809;28;19928;-62
2021/09/16 00:08:52;;;;;;;21.90;15.63;;;;;;;17.42;95.89;99799.03;4992363;28;20062;-61
2021/09/16 00:11:37;;;;;;;22.15;15.23;;;;;;;17.38;95.78;99804.00;4992114;28;20128;-62
2021/09/16 00:14:22;;;;;;;25.33;15.43;;;;;;;17.31;96.00;99797.72;4992110;28;20057;-59
2021/09/16 00:17:07;;;;;;;25.00;15.55;;;;;;;17.32;96.11;99801.28;4991838;28;20548;-62
2021/09/16 00:19:54;;;;;;;24.90;16.55;;;;;;;17.39;95.26;99796.72;4992301;28;20065;-62
2021/09/16 00:22:39;;;;;;;27.55;16.20;;;;;;;17.42;95.16;99808.03;4992275;28;20056;-62
2021/09/16 00:25:24;;;;;;;23.98;14.48;;;;;;;17.46;95.25;99814.72;4991260;28;20061;-58
2021/09/16 00:28:10;;;;;;;27.30;18.30;;;;;;;17.33;95.78;99811.09;4991951;28;20128;-62
2021/09/16 00:30:54;;;;;;;26.17;16.88;;;;;;;17.35;95.57;99811.72;4991957;28;20126;-62
2021/09/16 00:33:39;;;;;;;30.40;16.85;;;;;;;17.29;95.88;99813.38;4991960;28;20226;-62
2021/09/16 00:36:25;;;;;;;23.88;15.43;;;;;;;17.42;94.98;99815.31;4991578;28;20057;-61
2021/09/16 00:39:11;;;;;;;23.17;15.77;;;;;;;17.32;95.54;99820.25;4992398;28;20124;-62
2021/09/16 00:41:56;;;;;;;23.88;16.80;;;;;;;17.40;93.99;99823.63;4992024;28;20124;-63
2021/09/16 00:44:41;;;;;;;22.07;15.30;;;;;;;17.27;95.05;99820.00;4992396;28;20061;-66
2021/09/16 00:47:26;;;;;;;23.83;15.70;;;;;;;17.23;95.78;99822.28;4991558;28;20061;-62
2021/09/16 00:50:11;;;;;;;25.83;16.90;;;;;;;17.27;95.49;99830.84;4992090;28;20213;-64
2021/09/16 00:52:59;;;;;;;22.23;15.38;;;;;;;17.38;94.88;99827.59;4991690;28;20714;-63
2021/09/16 00:55:46;;;;;;;28.08;16.98;;;;;;;17.31;95.06;99821.28;4991425;28;20194;-64
2021/09/16 00:58:38;;;;;;;26.52;16.73;;;;;;;17.31;94.93;99824.84;4991789;28;20062;-62
2021/09/16 01:01:23;;;;;;;25.42;17.55;;;;;;;17.17;95.90;99823.06;4991880;28;20113;-63
2021/09/16 01:04:08;;;;;;;29.95;18.80;;;;;;;17.20;95.27;99826.22;4991625;28;20077;-64
2021/09/16 01:06:53;;;;;;;32.13;20.07;;;;;;;17.35;94.72;99836.13;4991410;28;20144;-64
2021/09/16 01:09:42;;;;;;;32.88;19.92;;;;;;;17.23;94.63;99831.25;4991499;28;20205;-63
2021/09/16 01:12:28;;;;;;;28.65;19.42;;;;;;;17.27;94.55;99830.84;4991587;28;20639;-64
2021/09/16 01:15:13;;;;;;;28.67;18.58;;;;;;;17.08;95.42;99826.97;4991590;28;20563;-63
2021/09/16 01:17:58;;;;;;;33.90;19.63;;;;;;;17.00;96.50;99846.06;4991438;28;20204;-63
2021/09/16 01:20:43;;;;;;;36.10;20.70;;;;;;;16.99;96.32;99845.22;4991321;28;20420;-64
2021/09/16 01:23:30;;;;;;;32.95;20.90;;;;;;;16.93;96.44;99841.44;4991541;28;20061;-63
2021/09/16 01:26:15;;;;;;;29.92;19.42;;;;;;;16.87;96.94;99846.78;4991054;28;20112;-63
2021/09/16 01:29:00;;;;;;;42.70;23.20;;;;;;;17.08;95.99;99849.50;4991040;28;20124;-64
2021/09/16 01:31:47;;;;;;;33.30;20.23;;;;;;;17.07;96.02;99831.53;4991488;28;20165;-65
2021/09/16 01:34:33;;;;;;;40.35;24.80;;;;;;;16.84;96.07;99841.75;4991223;28;20184;-64
2021/09/16 01:37:19;;;;;;;;;;;;;;;16.76;96.90;99842.72;4994713;28;20523;-64
2021/09/16 01:40:06;;;;;;;44.42;24.00;;;;;;;16.79;97.38;99846.91;4994583;28;19933;-63
2021/09/16 01:42:51;;;;;;;39.35;23.08;;;;;;;16.78;97.16;99850.66;4994705;28;20058;-63
2021/09/16 01:45:36;;;;;;;34.75;21.60;;;;;;;16.66;97.08;99856.56;4994370;28;20408;-64
2021/09/16 01:48:21;;;;;;;40.15;23.08;;;;;;;16.71;96.93;99858.75;4994727;28;20130;-63
2021/09/16 01:51:06;;;;;;;31.85;20.48;;;;;;;16.60;97.72;99857.34;4994550;28;20058;-63
2021/09/16 01:53:52;;;;;;;42.80;25.52;;;;;;;16.63;97.39;99862.38;4994425;28;20058;-63
2021/09/16 01:56:38;;;;;;;38.38;23.35;;;;;;;16.60;97.36;99862.75;4994074;28;20056;-63
2021/09/16 01:59:23;;;;;;;36.65;22.52;;;;;;;16.63;97.03;99862.38;4994667;28;20061;-63
2021/09/16 02:02:08;;;;;;;36.37;23.60;;;;;;;16.72;96.54;99856.88;4994330;28;20119;-63
2021/09/16 02:04:53;;;;;;;32.70;19.80;;;;;;;16.83;96.12;99856.34;4994378;28;20077;-64
2021/09/16 02:07:38;;;;;;;33.47;21.45;;;;;;;16.79;96.26;99860.47;4993935;28;20424;-64
2021/09/16 02:10:23;;;;;;;40.25;22.60;;;;;;;16.61;96.95;99869.84;4994169;28;20165;-63
2021/09/16 02:13:09;;;;;;;38.95;22.70;;;;;;;16.69;96.50;99860.78;4994199;28;20069;-63
2021/09/16 02:15:55;;;;;;;30.77;20.48;;;;;;;16.45;97.18;99859.25;4994236;28;20201;-64
2021/09/16 02:18:40;;;;;;;31.67;20.90;;;;;;;16.49;96.69;99857.84;4994076;28;20514;-64
2021/09/16 02:21:25;;;;;;;40.20;25.30;;;;;;;16.27;97.47;99867.78;4994312;28;20523;-61
2021/09/16 02:24:10;;;;;;;36.28;21.80;;;;;;;16.18;98.09;99868.94;4994153;28;20586;-64
2021/09/16 02:26:54;;;;;;;35.47;22.35;;;;;;;16.16;98.83;99862.03;4993353;28;20057;-64
2021/09/16 02:29:41;;;;;;;48.55;27.42;;;;;;;16.22;99.02;99870.25;4994122;28;20193;-65
2021/09/16 02:32:26;;;;;;;42.63;26.27;;;;;;;16.23;98.35;99865.66;4993761;28;20077;-63
2021/09/16 02:35:12;;;;;;;41.88;23.83;;;;;;;16.38;97.81;99861.88;4994146;28;20105;-63
2021/09/16 02:37:57;;;;;;;;;;;;;;;16.35;97.42;99858.72;4993731;28;20061;-63
2021/09/16 02:40:42;;;;;;;41.85;24.17;;;;;;;16.40;96.82;99864.41;4993669;28;20300;-64
2021/09/16 02:43:27;;;;;;;40.45;23.55;;;;;;;16.36;97.23;99865.81;4993319;28;20080;-63
2021/09/16 02:46:14;;;;;;;34.15;22.10;;;;;;;16.29;96.94;99871.16;4993012;28;20069;-63
2021/09/16 02:48:59;;;;;;;36.20;23.80;;;;;;;16.35;96.93;99872.28;4993103;28;20061;-64
2021/09/16 02:51:44;;;;;;;43.42;25.35;;;;;;;16.14;97.74;99872.22;4993319;28;20056;-63
2021/09/16 02:54:29;;;;;;;45.35;24.17;;;;;;;16.19;97.80;99880.59;4992999;28;20440;-64
2021/09/16 02:57:14;;;;;;;41.40;22.15;;;;;;;16.20;97.38;99874.16;4992932;28;20062;-63
2021/09/16 02:59:59;;;;;;;37.53;20.67;;;;;;;16.06;97.95;99882.09;4993424;28;20061;-63
2021/09/16 03:02:45;;;;;;;39.10;23.17;;;;;;;16.28;96.75;99884.88;4993035;28;20420;-64
2021/09/16 03:05:30;;;;;;;36.70;21.70;;;;;;;16.28;96.20;99879.47;4993248;28;20102;-64
2021/09/16 03:08:16;;;;;;;36.47;21.00;;;;;;;16.30;96.18;99880.13;4993284;28;20056;-63
2021/09/16 03:11:00;;;;;;;32.58;20.65;;;;;;;16.41;94.71;99871.50;4992994;28;20112;-63
2021/09/16 03:13:45;;;;;;;31.80;20.75;;;;;;;16.15;96.38;99884.72;4992992;28;20132;-63
2021/09/16 03:16:30;;;;;;;34.57;19.57;;;;;;;16.11;96.13;99883.44;4992789;28;20165;-63
2021/09/16 03:19:16;;;;;;;33.55;19.40;;;;;;;16.03;96.15;99885.19;4993339;28;20057;-64
2021/09/16 03:22:02;;;;;;;32.42;19.55;;;;;;;16.04;95.92;99894.16;4993163;28;20061;-64
2021/09/16 03:24:47;;;;;;;34.42;20.63;;;;;;;16.07;95.45;99897.31;4993094;28;20064;-64
2021/09/16 03:27:32;;;;;;;37.75;18.52;;;;;;;16.12;95.42;99895.94;4992161;28;20185;-62
2021/09/16 03:30:17;;;;;;;31.17;19.55;;;;;;;15.99;95.61;99888.47;4993011;28;20057;-64
2021/09/16 03:33:02;;;;;;;38.07;19.33;;;;;;;16.07;95.02;99897.31;4992917;28;20116;-63
2021/09/16 03:35:49;;;;;;;29.65;17.83;;;;;;;15.97;95.57;99893.22;4992135;28;20057;-64
2021/09/16 03:38:34;;;;;;;34.55;19.48;;;;;;;15.96;95.58;99892.38;4992834;28;20053;-64
2021/09/16 03:41:19;;;;;;;31.00;18.33;;;;;;;16.12;94.47;99901.34;4992612;28;20061;-64
2021/09/16 03:44:04;;;;;;;24.55;16.70;;;;;;;15.99;94.36;99892.03;4993019;28;20512;-63
2021/09/16 03:46:51;;;;;;;25.65;16.42;;;;;;;15.73;95.44;99887.06;4992215;28;20148;-63
2021/09/16 03:49:39;;;;;;;29.75;15.55;;;;;;;15.97;93.74;99893.22;4992476;28;20056;-63
2021/09/16 03:52:25;;;;;;;26.30;14.75;;;;;;;15.57;94.68;99905.31;4992209;28;20100;-62
2021/09/16 03:55:11;;;;;;;25.58;15.20;;;;;;;15.47;95.30;99898.28;4992523;28;20575;-64
2021/09/16 03:57:55;;;;;;;23.83;14.80;;;;;;;15.27;95.51;99907.94;4991685;28;20058;-64
2021/09/16 04:00:41;;;;;;;21.70;13.45;;;;;;;15.26;95.64;99916.22;4992487;28;20189;-64
2021/09/16 04:03:26;;;;;;;19.65;13.00;;;;;;;15.12;96.07;99918.72;4992187;28;20421;-62
2021/09/16 04:06:11;;;;;;;20.23;12.68;;;;;;;15.16;96.30;99911.09;4992170;28;20057;-63
2021/09/16 04:08:57;;;;;;;19.80;11.93;;;;;;;15.23;95.02;99903.94;4991984;28;20417;-62
2021/09/16 04:11:42;;;;;;;22.85;13.15;;;;;;;15.15;94.84;99914.81;4992296;28;20077;-64
2021/09/16 04:14:27;;;;;;;19.80;11.35;;;;;;;14.96;95.89;99909.91;4992231;28;20547;-63
2021/09/16 04:17:12;;;;;;;17.33;10.35;;;;;;;14.72;96.55;99906.34;4991983;28;20061;-63
2021/09/16 04:19:57;;;;;;;18.67;11.82;;;;;;;14.81;96.69;99905.28;4991916;28;20056;-64
2021/09/16 04:22:42;;;;;;;18.73;12.35;;;;;;;14.70;96.71;99913.81;4992094;28;20080;-63
2021/09/16 04:25:29;;;;;;;17.70;11.35;;;;;;;14.74;96.26;99916.97;4992032;28;20554;-63
2021/09/16 04:28:14;;;;;;;14.93;9.30;;;;;;;14.62;96.83;99909.28;4991773;28;20061;-63
2021/09/16 04:30:59;;;;;;;18.38;9.88;;;;;;;14.73;96.03;99905.34;4991941;28;20065;-64
2021/09/16 04:33:44;;;;;;;17.55;10.18;;;;;;;14.97;95.03;99912.41;4992119;28;20053;-63
2021/09/16 04:36:29;;;;;;;18.00;9.73;;;;;;;15.01;93.79;99907.50;4991441;28;20200;-63
2021/09/16 04:39:14;;;;;;;13.52;8.52;;;;;;;14.88;94.65;99914.34;4991944;28;20049;-64
2021/09/16 04:42:00;;;;;;;16.57;8.03;;;;;;;15.21;92.35;99922.19;4992050;28;20073;-62
2021/09/16 04:44:48;;;;;;;12.95;7.88;;;;;;;15.04;93.17;99917.97;5020576;28;20052;-64
2021/09/16 04:47:33;;;;;;;13.32;6.70;;;;;;;15.36;90.16;99922.22;5031237;28;20092;-65
2021/09/16 04:50:18;;;;;;;8.85;5.57;;;;;;;15.27;89.89;99923.31;5032187;28;20061;-62
2021/09/16 04:53:03;;;;;;;9.25;5.35;;;;;;;15.36;89.49;99922.22;5024813;28;20061;-65
2021/09/16 04:55:49;;;;;;;9.63;5.20;;;;;;;15.27;89.03;99916.03;5012163;28;20108;-64
2021/09/16 04:58:35;;;;;;;7.38;4.97;;;;;;;15.12;89.64;99910.59;5012052;28;20049;-57
2021/09/16 05:01:20;;;;;;;6.95;3.70;;;;;;;15.17;88.44;99920.88;5011525;28;20061;-55
2021/09/16 05:04:06;;;;;;;5.78;3.35;;;;;;;15.02;89.61;99917.28;5012333;28;20080;-58
2021/09/16 05:06:51;;;;;;;4.50;2.95;;;;;;;15.06;87.90;99929.41;5012849;28;20056;-58
2021/09/16 05:09:36;;;;;;;4.53;3.07;;;;;;;15.14;86.84;99932.03;5011863;28;20189;-61
2021/09/16 05:12:21;;;;;;;6.70;3.15;;;;;;;15.09;87.05;99934.47;5015194;28;20623;-57
2021/09/16 05:15:08;;;;;;;4.32;2.63;;;;;;;15.33;85.32;99941.53;5015111;28;20053;-62
2021/09/16 05:17:54;;;;;;;3.95;2.70;;;;;;;15.25;85.93;99945.13;5014841;28;20483;-58
2021/09/16 05:20:39;;;;;;;4.90;2.85;;;;;;;15.21;85.71;99947.38;5014791;28;20326;-62
2021/09/16 05:23:24;;;;;;;4.00;2.30;;;;;;;15.23;86.20;99944.47;5014645;28;20141;-58
2021/09/16 05:26:09;;;;;;;4.15;2.58;;;;;;;15.25;85.65;99949.69;5014510;28;20127;-60
2021/09/16 05:28:53;;;;;;;6.13;2.63;;;;;;;15.21;86.12;99951.94;5014111;28;20081;-57
2021/09/16 05:31:40;;;;;;;3.30;2.42;;;;;;;15.31;85.92;99951.69;5014707;28;20475;-63
2021/09/16 05:34:25;;;;;;;5.90;2.55;;;;;;;15.27;86.11;99953.06;5014635;28;20418;-59
2021/09/16 05:37:10;;;;;;;7.95;2.88;;;;;;;15.27;86.41;99967.41;5013456;28;20065;-60
2021/09/16 05:39:55;;;;;;;7.53;3.23;;;;;;;15.33;86.11;99966.69;5014617;28;20057;-58
2021/09/16 05:42:40;;;;;;;6.25;2.42;;;;;;;15.35;85.56;99970.06;5014312;28;20061;-58
2021/09/16 05:45:25;;;;;;;5.75;2.88;;;;;;;15.54;85.11;99973.31;5013870;28;20136;-58
2021/09/16 05:48:12;;;;;;;3.72;2.55;;;;;;;15.59;84.77;99968.16;5014217;28;20466;-58
2021/09/16 05:50:57;;;;;;;3.53;2.47;;;;;;;15.49;84.81;99977.38;5014065;28;20064;-58
2021/09/16 05:53:42;;;;;;;4.72;2.45;;;;;;;15.34;85.89;99979.19;5013517;28;20061;-60
2021/09/16 05:56:27;;;;;;;4.63;2.40;;;;;;;15.27;87.05;99980.09;5013614;28;20107;-59
2021/09/16 05:59:11;;;;;;;6.53;2.72;;;;;;;15.18;89.38;99990.16;5013874;28;20112;-60
2021/09/16 06:01:57;;;;;;;3.27;2.60;;;;;;;15.18;88.36;99990.16;5013767;28;20103;-59
2021/09/16 06:04:43;;;;;;;6.38;2.78;;;;;;;15.13;89.60;99987.13;4996364;28;20095;-60
2021/09/16 06:07:28;;;;;;;6.20;3.05;;;;;;;15.26;87.68;99983.81;5013175;28;20073;-61
2021/09/16 06:10:13;;;;;;;5.70;2.85;;;;;;;15.46;85.87;99980.44;5013573;28;20053;-60
2021/09/16 06:12:58;;;;;;;5.55;2.95;;;;;;;15.49;86.85;99987.34;5013595;28;20151;-62
2021/09/16 06:15:43;;;;;;;6.40;2.70;;;;;;;15.65;85.76;99986.41;5013136;28;20526;-58
2021/09/16 06:18:27;;;;;;;5.32;3.20;;;;;;;15.87;83.97;99984.69;5013533;28;20419;-57
2021/09/16 06:21:14;;;;;;;4.95;2.88;;;;;;;15.81;85.64;99999.78;5010562;28;20140;-58
2021/09/16 06:23:59;;;;;;;5.93;2.85;;;;;;;15.81;86.68;99999.78;4993796;28;20057;-61
2021/09/16 06:26:44;;;;;;;3.88;2.75;;;;;;;15.97;83.30;99996.06;4993339;28;20567;-59
2021/09/16 06:29:29;;;;;;;6.70;3.33;;;;;;;15.93;85.31;99995.59;4994040;28;20058;-66
2021/09/16 06:32:14;;;;;;;4.35;2.78;;;;;;;15.92;85.11;100010.16;4993883;28;20053;-66
2021/09/16 06:34:59;;;;;;;6.65;2.90;;;;;;;16.10;83.92;100007.09;4994537;28;20108;-64
2021/09/16 06:37:45;;;;;;;6.65;3.33;;;;;;;16.13;84.00;100003.19;4994157;28;20514;-64
2021/09/16 06:40:30;;;;;;;13.75;4.10;;;;;;;16.11;85.36;100007.97;4993593;28;20065;-63
2021/09/16 06:43:15;;;;;;;5.55;3.72;;;;;;;16.34;83.36;100020.38;4993852;28;20064;-65
2021/09/16 06:46:00;;;;;;;6.93;3.30;;;;;;;16.38;84.14;100018.13;4992725;28;20114;-65
2021/09/16 06:48:45;;;;;;;6.22;3.15;;;;;;;16.44;83.64;100014.66;4993831;28;20189;-64
2021/09/16 06:51:30;;;;;;;10.00;3.58;;;;;;;16.44;83.89;100017.38;4993730;28;20096;-64
2021/09/16 06:54:16;;;;;;;7.30;3.58;;;;;;;16.57;82.69;100014.00;4993790;28;20113;-66
2021/09/16 06:57:01;;;;;;;8.40;3.20;;;;;;;16.65;81.96;100016.63;4993677;28;20065;-62
2021/09/16 06:59:46;;;;;;;7.22;3.53;;;;;;;16.65;83.63;100022.03;4993396;28;20057;-65
2021/09/16 07:02:32;;;;;;;4.47;3.20;;;;;;;16.82;81.61;100020.84;4992947;28;20053;-64
2021/09/16 07:05:17;;;;;;;7.80;3.70;;;;;;;16.90;80.70;100022.59;4993259;28;20113;-66
2021/09/16 07:08:02;;;;;;;5.28;2.53;;;;;;;17.04;79.99;100024.41;4993314;28;20053;-63
2021/09/16 07:10:48;;;;;;;3.63;2.63;;;;;;;17.31;77.13;100030.16;4992951;28;20189;-61
2021/09/16 07:13:34;;;;;;;4.60;2.20;;;;;;;17.48;77.25;100023.41;5005152;28;20187;-63
2021/09/16 07:16:18;;;;;;;5.20;1.80;;;;;;;17.67;76.70;100032.78;5012259;28;20441;-64
2021/09/16 07:19:03;;;;;;;4.65;2.38;;;;;;;17.99;76.33;100034.94;5012175;28;20057;-66
2021/09/16 07:21:48;;;;;;;3.70;1.30;;;;;;;17.88;72.81;100035.50;5013444;28;20181;-61
2021/09/16 07:24:33;;;;;;;3.10;1.40;;;;;;;17.59;72.86;100041.88;5012820;28;20135;-65
2021/09/16 07:27:20;;;;;;;7.38;1.52;;;;;;;17.62;72.44;100046.91;5012737;28;20073;-62
2021/09/16 07:30:06;;;;;;;1.92;1.05;;;;;;;17.69;71.33;100047.03;5012633;28;20069;-60
2021/09/16 07:32:51;;;;;;;1.20;0.88;;;;;;;17.51;71.10;100050.16;5011469;28;20056;-59
2021/09/16 07:35:36;;;;;;;2.33;1.10;;;;;;;17.35;70.32;100067.53;5011977;28;20423;-57
2021/09/16 07:38:21;;;;;;;1.27;0.57;;;;;;;17.27;70.35;100061.38;5011979;28;20060;-59
2021/09/16 07:41:06;;;;;;;2.22;0.70;;;;;;;16.94;72.18;100064.56;5012050;28;20061;-56
2021/09/16 07:43:52;;;;;;;2.25;1.00;;;;;;;16.64;73.13;100066.41;5011945;28;20440;-57
2021/09/16 07:46:37;;;;;;;2.22;0.93;;;;;;;16.56;74.73;100072.75;5011509;28;20459;-56
2021/09/16 07:49:22;;;;;;;3.22;1.00;;;;;;;16.51;75.27;100071.66;5011452;28;20057;-58
2021/09/16 07:52:08;;;;;;;3.10;1.23;;;;;;;16.30;77.61;100069.66;5012100;28;20135;-56
2021/09/16 07:54:53;;;;;;;2.20;0.93;;;;;;;16.27;73.34;100068.19;5011738;28;20533;-61
2021/09/16 07:57:38;;;;;;;3.53;0.80;;;;;;;16.11;73.35;100072.94;5011372;28;20100;-57
2021/09/16 08:00:24;;;;;;;2.65;0.88;;;;;;;16.09;73.97;100073.94;5011453;28;20527;-61
2021/09/16 08:03:09;;;;;;;2.08;0.60;;;;;;;16.23;72.56;100077.72;5011661;28;20064;-60
2021/09/16 08:05:54;;;;;;;1.90;0.60;;;;;;;16.23;72.60;100076.88;5011196;28;20459;-65
2021/09/16 08:08:39;;;;;;;1.70;0.52;;;;;;;16.28;71.94;100087.97;5012197;28;20056;-59
2021/09/16 08:11:25;;;;;;;0.52;0.40;;;;;;;16.34;70.81;100084.53;5011523;28;20531;-55
2021/09/16 08:14:10;;;;;;;4.00;1.27;;;;;;;16.49;70.53;100085.38;4994780;28;20060;-61
2021/09/16 08:16:56;;;;;;;2.50;0.43;;;;;;;16.47;69.23;100078.47;4991795;28;20172;-56
2021/09/16 08:19:42;;;;;;;1.67;0.65;;;;;;;16.73;70.58;100078.03;4991763;28;20117;-60
2021/09/16 08:22:27;;;;;;;4.43;0.90;;;;;;;16.88;70.60;100078.84;4991797;28;20061;-57
2021/09/16 08:25:14;;;;;;;3.83;0.50;;;;;;;17.05;69.37;100082.19;4992104;28;20070;-59
2021/09/16 08:27:59;;;;;;;2.05;0.40;;;;;;;17.23;68.69;100086.19;4991729;28;20066;-60
2021/09/16 08:30:45;;;;;;;3.08;0.55;;;;;;;17.52;67.83;100087.09;4992365;28;20057;-58
2021/09/16 08:33:32;;;;;;;;;;;;;;;17.72;67.80;100095.47;4992499;28;20136;-59
2021/09/16 08:36:17;;;;;;;4.10;0.75;;;;;;;17.91;66.93;100097.56;4991148;28;19929;-60
2021/09/16 08:39:02;;;;;;;1.08;0.40;;;;;;;17.89;65.45;100090.66;4992607;28;20628;-61
2021/09/16 08:41:47;;;;;;;2.40;0.60;;;;;;;17.93;66.54;100091.94;4991802;28;20133;-60
2021/09/16 08:44:32;;;;;;;2.35;0.50;;;;;;;17.97;63.07;100085.06;4991313;28;20057;-60
2021/09/16 08:47:18;;;;;;;1.40;0.40;;;;;;;17.97;64.14;100076.91;4995420;28;20053;-57
2021/09/16 08:50:05;;;;;;;1.35;0.40;;;;;;;17.86;64.46;100089.13;4995743;28;20511;-59
2021/09/16 08:52:51;;;;;;;2.50;0.55;;;;;;;17.67;63.67;100081.63;4995488;28;20492;-61
2021/09/16 08:55:36;;;;;;;3.15;0.85;;;;;;;17.38;65.62;100082.56;4995605;28;20061;-58
2021/09/16 08:58:26;;;;;;;2.53;0.77;;;;;;;17.73;64.96;100092.56;4995472;28;20132;-60
2021/09/16 09:01:11;;;;;;;3.70;0.50;;;;;;;18.06;64.69;100097.47;4995420;28;20063;-60
2021/09/16 09:03:56;;;;;;;1.70;0.60;;;;;;;18.22;65.25;100097.16;4995044;28;20132;-61
2021/09/16 09:06:43;;;;;;;4.15;0.88;;;;;;;18.16;63.52;100091.69;4995138;28;20531;-62
2021/09/16 09:09:28;;;;;;;1.45;0.55;;;;;;;18.03;64.11;100092.44;4995148;28;20124;-60
2021/09/16 09:12:16;;;;;;;2.60;0.60;;;;;;;17.79;66.77;100086.38;4995275;28;20108;-57
2021/09/16 09:15:02;;;;;;;2.08;0.55;;;;;;;18.07;63.91;100093.72;4995079;28;20057;-57
2021/09/16 09:17:47;;;;;;;;;;;;;;;18.16;65.99;100087.09;4995513;28;20152;-60
2021/09/16 09:20:33;;;;;;;3.90;0.82;;;;;;;18.40;62.02;100092.09;4995183;28;19928;-57
2021/09/16 09:23:24;;;;;;;3.72;0.75;;;;;;;18.54;63.36;100076.72;4994937;28;20431;-61
2021/09/16 09:26:22;;;;;;;3.35;0.45;;;;;;;18.40;65.14;100089.38;4994087;28;20065;-62
2021/09/16 09:29:16;;;;;;;2.38;0.70;;;;;;;18.06;65.21;100078.47;4994651;28;20050;-58
2021/09/16 09:32:07;;;;;;;2.53;0.60;;;;;;;17.94;63.44;100077.31;4994958;28;20057;-61
2021/09/16 09:34:52;;;;;;;2.90;0.75;;;;;;;18.14;62.94;100074.78;4995415;28;20061;-59
2021/09/16 09:37:37;;;;;;;4.18;0.93;;;;;;;18.07;66.13;100083.69;4995015;28;20053;-54
2021/09/16 09:40:28;;;;;;;4.55;1.00;;;;;;;18.29;63.86;100073.63;4994460;28;20053;-61
2021/09/16 09:43:25;;;;;;;2.58;0.60;;;;;;;18.23;63.87;100073.56;4994678;28;20140;-58
2021/09/16 09:46:12;;;;;;;2.13;0.70;;;;;;;18.33;63.76;100074.06;4994353;28;20066;-62
2021/09/16 09:49:01;;;;;;;2.97;0.75;;;;;;;18.75;62.84;100074.97;4994628;28;20069;-58
2021/09/16 09:51:48;;;;;;;1.83;0.63;;;;;;;19.47;61.13;100067.09;4994791;28;20432;-54
2021/09/16 09:54:37;;;;;;;1.67;0.70;;;;;;;19.66;60.87;100061.94;4994412;28;20064;-59
2021/09/16 09:57:24;;;;;;;4.00;0.98;;;;;;;19.81;61.00;100065.28;4993350;28;20120;-60
2021/09/16 10:00:11;;;;;;;1.92;0.50;;;;;;;19.43;61.46;100065.84;4994100;28;20048;-62
2021/09/16 10:02:56;;;;;;;0.90;0.50;;;;;;;19.45;59.02;100061.00;4994530;28;20073;-58
2021/09/16 10:05:43;;;;;;;7.82;0.80;;;;;;;20.09;59.50;100056.91;4993593;28;20065;-63
2021/09/16 10:08:28;;;;;;;5.10;0.73;;;;;;;19.85;56.96;100055.63;4994150;28;20057;-58
2021/09/16 10:11:34;;;;;;;2.27;0.50;;;;;;;19.52;59.80;100061.84;4993803;28;20555;-59
2021/09/16 10:14:20;;;;;;;2.47;0.70;;;;;;;19.07;63.31;100059.88;5011929;28;20303;-57
2021/09/16 10:17:06;;;;;;;1.42;0.60;;;;;;;18.49;63.66;100068.31;5013161;28;20188;-56
2021/09/16 10:19:51;;;;;;;3.67;0.60;;;;;;;18.32;64.32;100084.09;5013681;28;20107;-58
2021/09/16 10:22:38;;;;;;;3.15;0.98;;;;;;;18.44;64.32;100080.81;5012972;28;20135;-61
2021/09/16 10:25:25;;;;;;;2.13;0.88;;;;;;;18.31;61.71;100076.97;5013601;28;20557;-60
2021/09/16 10:28:10;;;;;;;1.73;0.80;;;;;;;18.57;60.77;100070.03;5013195;28;20088;-59
2021/09/16 10:30:57;;;;;;;1.85;0.70;;;;;;;18.57;61.80;100072.75;5013822;28;20104;-60
2021/09/16 10:33:42;;;;;;;2.00;1.10;;;;;;;18.55;62.71;100066.66;5013315;28;20056;-59
2021/09/16 10:36:27;;;;;;;2.43;0.83;;;;;;;18.88;59.07;100081.31;5012870;28;20135;-59
2021/09/16 10:39:18;;;;;;;3.15;0.90;;;;;;;18.89;59.63;100074.84;5012728;28;20061;-61
2021/09/16 10:42:03;;;;;;;3.50;1.52;;;;;;;18.86;59.09;100088.84;5013218;28;20081;-58
2021/09/16 10:45:05;;;;;;;2.63;1.08;;;;;;;19.06;57.89;100091.66;5013189;28;20060;-59
2021/09/16 10:48:33;;;;;;;2.85;0.88;;;;;;;18.80;57.58;100075.19;5013417;28;20156;-58
2021/09/16 10:51:33;;;;;;;;;;;;;;;18.83;58.43;100082.97;5014118;28;20056;-53
2021/09/16 10:54:39;;;;;;;1.98;0.80;;;;;;;18.46;58.10;100082.28;5013494;28;19929;-55
2021/09/16 10:57:37;;;;;;;2.47;0.70;;;;;;;18.34;59.17;100092.03;5013210;28;20100;-56
2021/09/16 11:00:22;;;;;;;2.35;0.50;;;;;;;18.55;59.30;100091.13;5013320;28;20061;-57
2021/09/16 11:03:09;;;;;;;1.95;0.65;;;;;;;18.46;58.78;100087.72;5016445;23;20190;-60
2021/09/16 11:05:58;;;;;;;2.45;0.70;;;;;;;18.77;56.81;100079.16;4983093;28;20053;-64
2021/09/16 11:09:00;;;;;;;3.50;0.57;;;;;;;18.74;56.58;100089.63;4992332;28;20076;-62
2021/09/16 11:11:50;;;;;;;1.90;0.50;;;;;;;18.53;57.70;100082.34;4993692;28;20052;-64
2021/09/16 11:14:39;;;;;;;3.22;0.70;;;;;;;18.52;57.34;100080.66;4973429;28;20413;-62
2021/09/16 11:17:27;;;;;;;1.98;0.75;;;;;;;18.57;58.37;100083.63;4973519;28;20109;-60
2021/09/16 11:20:15;;;;;;;2.00;0.70;;;;;;;19.21;56.18;100084.19;4973456;28;20093;-63
2021/09/16 11:23:00;;;;;;;1.45;0.90;;;;;;;19.45;54.65;100081.94;4973514;28;20393;-63
2021/09/16 11:25:49;;;;;;;3.72;0.88;;;;;;;19.60;55.31;100082.63;4972767;28;20094;-63
2021/09/16 11:28:34;;;;;;;1.25;0.85;;;;;;;19.73;52.70;100095.44;4973814;28;20110;-61
2021/09/16 11:31:19;;;;;;;2.73;0.97;;;;;;;19.38;54.91;100090.09;4973065;28;20082;-61
2021/09/16 11:34:17;;;;;;;3.67;1.00;;;;;;;19.47;53.75;100086.13;4973057;28;20065;-63
2021/09/16 11:37:14;;;;;;;2.38;0.90;;;;;;;19.67;54.44;100102.56;4972862;28;20073;-65
2021/09/16 11:40:03;;;;;;;2.65;0.95;;;;;;;19.56;54.01;100093.09;4973351;28;20117;-64
2021/09/16 11:42:50;;;;;;;1.73;0.95;;;;;;;19.47;55.72;100096.19;4973421;28;20104;-63
2021/09/16 11:45:37;;;;;;;1.35;0.70;;;;;;;19.82;53.87;100094.19;4972989;28;20057;-62
2021/09/16 11:48:24;;;;;;;2.72;0.93;;;;;;;20.00;53.52;100099.84;4972918;28;20064;-64
2021/09/16 11:51:09;;;;;;;1.25;0.77;;;;;;;20.28;54.18;100091.47;4973323;28;20140;-63
2021/09/16 11:53:55;;;;;;;2.47;0.90;;;;;;;20.64;52.98;100087.47;4989870;28;20058;-64
2021/09/16 11:56:40;;;;;;;2.35;0.70;;;;;;;20.19;51.89;100081.00;4991593;28;20088;-64
2021/09/16 11:59:25;;;;;;;3.13;0.90;;;;;;;19.96;54.07;100074.06;4992476;28;20527;-63
2021/09/16 12:02:10;;;;;;;2.00;0.90;;;;;;;19.65;55.67;100073.84;4992229;28;20057;-64
2021/09/16 12:04:55;;;;;;;1.80;0.97;;;;;;;19.29;56.11;100078.53;4991878;28;20304;-63
2021/09/16 12:07:42;;;;;;;2.25;0.88;;;;;;;19.20;56.24;100071.63;4992097;28;20299;-66
2021/09/16 12:10:37;;;;;;;3.28;0.90;;;;;;;19.38;57.38;100071.03;4992127;28;20528;-65
2021/09/16 12:13:25;;;;;;;1.67;0.75;;;;;;;19.65;57.24;100073.84;4981398;28;20136;-63
2021/09/16 12:16:12;;;;;;;2.75;0.68;;;;;;;19.83;57.36;100074.06;4972568;28;20086;-63
2021/09/16 12:18:59;;;;;;;0.88;0.50;;;;;;;20.36;56.87;100071.31;4972272;28;20066;-63
2021/09/16 12:21:46;;;;;;;1.52;0.47;;;;;;;20.53;54.97;100069.88;4991845;28;20539;-59
2021/09/16 12:24:31;;;;;;;2.33;0.65;;;;;;;20.21;55.62;100074.28;4991593;28;20060;-59
2021/09/16 12:27:19;;;;;;;1.10;0.60;;;;;;;19.82;56.01;100075.13;4991642;28;20061;-58
2021/09/16 12:30:14;;;;;;;4.95;0.70;;;;;;;19.83;56.30;100074.06;4991703;28;20404;-61
2021/09/16 12:32:59;;;;;;;1.17;0.45;;;;;;;20.02;56.06;100073.25;4992233;28;20057;-62
2021/09/16 12:35:44;;;;;;;3.97;0.65;;;;;;;20.14;56.44;100077.03;4991715;28;20412;-58
2021/09/16 12:38:37;;;;;;;9.68;0.82;;;;;;;20.20;55.10;100080.78;4992125;28;20057;-61
2021/09/16 12:41:35;;;;;;;1.42;0.40;;;;;;;20.17;56.61;100078.47;4991792;28;20053;-59
2021/09/16 12:44:24;;;;;;;5.78;1.10;;;;;;;20.10;57.97;100078.47;4991671;28;20054;-58
2021/09/16 12:47:11;;;;;;;1.40;0.63;;;;;;;20.11;56.21;100080.16;4991256;28;20064;-56
2021/09/16 12:49:56;;;;;;;1.55;0.70;;;;;;;19.59;57.49;100071.94;4991692;28;20056;-63
2021/09/16 12:52:41;;;;;;;0.77;0.60;;;;;;;19.19;57.61;100072.66;4991701;28;20061;-62